sensor_id;sensor_type;location;lat;lon;timestamp;P1;durP1;ratioP1;P2;durP2;ratioP2
17228;SDS011;8731;50.364;8.958;2023-07-30T00:03:08;2.63;;;2.30;;
17228;SDS011;8731;50.364;8.958;2023-07-30T00:07:31;4.63;;;2.97;;
17228;SDS011;8731;50.364;8.958;2023-07-30T00:11:55;4.60;;;2.67;;
17228;SDS011;8731;50.364;8.958;2023-07-30T00:16:19;2.60;;;2.23;;
17228;SDS011;8731;50.364;8.958;2023-07-30T00:20:41;6.90;;;2.80;;
17228;SDS011;8731;50.364;8.958;2023-07-30T00:25:04;4.83;;;2.77;;
17228;SDS011;8731;50.364;8.958;2023-07-30T00:29:28;6.23;;;2.50;;
17228;SDS011;8731;50.364;8.958;2023-07-30T00:33:52;7.47;;;2.97;;
17228;SDS011;8731;50.364;8.958;2023-07-30T00:38:14;4.37;;;2.53;;
17228;SDS011;8731;50.364;8.958;2023-07-30T00:42:38;4.63;;;2.70;;
17228;SDS011;8731;50.364;8.958;2023-07-30T00:47:01;5.67;;;3.03;;
17228;SDS011;8731;50.364;8.958;2023-07-30T00:51:25;4.50;;;2.80;;
17228;SDS011;8731;50.364;8.958;2023-07-30T00:55:49;6.27;;;2.40;;
17228;SDS011;8731;50.364;8.958;2023-07-30T01:00:12;4.97;;;2.80;;
17228;SDS011;8731;50.364;8.958;2023-07-30T01:04:37;3.63;;;2.57;;
17228;SDS011;8731;50.364;8.958;2023-07-30T01:09:02;3.67;;;2.57;;
17228;SDS011;8731;50.364;8.958;2023-07-30T01:13:24;5.07;;;2.13;;
17228;SDS011;8731;50.364;8.958;2023-07-30T01:17:48;4.87;;;2.57;;
17228;SDS011;8731;50.364;8.958;2023-07-30T01:22:13;3.20;;;2.67;;
17228;SDS011;8731;50.364;8.958;2023-07-30T01:26:37;7.53;;;3.13;;
17228;SDS011;8731;50.364;8.958;2023-07-30T01:31:04;3.90;;;2.50;;
17228;SDS011;8731;50.364;8.958;2023-07-30T01:35:28;4.50;;;2.67;;
17228;SDS011;8731;50.364;8.958;2023-07-30T01:39:54;4.37;;;2.50;;
17228;SDS011;8731;50.364;8.958;2023-07-30T01:44:20;5.47;;;3.00;;
17228;SDS011;8731;50.364;8.958;2023-07-30T01:48:42;6.33;;;2.70;;
17228;SDS011;8731;50.364;8.958;2023-07-30T01:53:06;4.73;;;2.70;;
17228;SDS011;8731;50.364;8.958;2023-07-30T01:57:32;3.83;;;2.40;;
17228;SDS011;8731;50.364;8.958;2023-07-30T02:01:55;3.10;;;2.47;;
17228;SDS011;8731;50.364;8.958;2023-07-30T02:06:19;10.33;;;3.00;;
17228;SDS011;8731;50.364;8.958;2023-07-30T02:10:41;7.03;;;2.77;;
17228;SDS011;8731;50.364;8.958;2023-07-30T02:15:08;5.00;;;2.70;;
17228;SDS011;8731;50.364;8.958;2023-07-30T02:19:30;6.03;;;2.80;;
17228;SDS011;8731;50.364;8.958;2023-07-30T02:23:53;3.00;;;2.70;;
17228;SDS011;8731;50.364;8.958;2023-07-30T02:28:15;5.43;;;2.77;;
17228;SDS011;8731;50.364;8.958;2023-07-30T02:32:40;3.27;;;2.63;;
17228;SDS011;8731;50.364;8.958;2023-07-30T02:37:03;4.17;;;2.90;;
17228;SDS011;8731;50.364;8.958;2023-07-30T02:41:26;7.67;;;3.47;;
17228;SDS011;8731;50.364;8.958;2023-07-30T02:45:49;5.23;;;2.67;;
17228;SDS011;8731;50.364;8.958;2023-07-30T02:50:13;4.00;;;2.70;;
17228;SDS011;8731;50.364;8.958;2023-07-30T02:54:35;4.43;;;2.80;;
17228;SDS011;8731;50.364;8.958;2023-07-30T02:58:58;7.67;;;3.10;;
17228;SDS011;8731;50.364;8.958;2023-07-30T03:03:21;4.20;;;2.63;;
17228;SDS011;8731;50.364;8.958;2023-07-30T03:07:46;3.07;;;2.50;;
17228;SDS011;8731;50.364;8.958;2023-07-30T03:12:08;4.37;;;2.57;;
17228;SDS011;8731;50.364;8.958;2023-07-30T03:16:32;2.90;;;2.53;;
17228;SDS011;8731;50.364;8.958;2023-07-30T03:20:57;4.00;;;2.63;;
17228;SDS011;8731;50.364;8.958;2023-07-30T03:25:22;7.07;;;2.87;;
17228;SDS011;8731;50.364;8.958;2023-07-30T03:29:45;4.30;;;2.80;;
17228;SDS011;8731;50.364;8.958;2023-07-30T03:34:07;3.83;;;3.07;;
17228;SDS011;8731;50.364;8.958;2023-07-30T03:38:30;3.93;;;3.00;;
17228;SDS011;8731;50.364;8.958;2023-07-30T03:42:55;4.17;;;3.10;;
17228;SDS011;8731;50.364;8.958;2023-07-30T03:47:18;5.83;;;3.00;;
17228;SDS011;8731;50.364;8.958;2023-07-30T03:51:41;6.07;;;3.63;;
17228;SDS011;8731;50.364;8.958;2023-07-30T03:56:03;6.37;;;2.70;;
17228;SDS011;8731;50.364;8.958;2023-07-30T04:00:27;6.30;;;2.70;;
17228;SDS011;8731;50.364;8.958;2023-07-30T04:04:50;3.77;;;3.00;;
17228;SDS011;8731;50.364;8.958;2023-07-30T04:09:12;4.23;;;2.80;;
17228;SDS011;8731;50.364;8.958;2023-07-30T04:13:35;4.57;;;2.87;;
17228;SDS011;8731;50.364;8.958;2023-07-30T04:18:03;3.23;;;2.93;;
17228;SDS011;8731;50.364;8.958;2023-07-30T04:22:26;3.90;;;3.00;;
17228;SDS011;8731;50.364;8.958;2023-07-30T04:26:48;3.60;;;2.70;;
17228;SDS011;8731;50.364;8.958;2023-07-30T04:31:11;4.47;;;2.80;;
17228;SDS011;8731;50.364;8.958;2023-07-30T04:35:35;5.53;;;2.57;;
17228;SDS011;8731;50.364;8.958;2023-07-30T04:39:57;3.30;;;2.63;;
17228;SDS011;8731;50.364;8.958;2023-07-30T04:44:23;4.40;;;2.63;;
17228;SDS011;8731;50.364;8.958;2023-07-30T04:48:48;5.47;;;2.60;;
17228;SDS011;8731;50.364;8.958;2023-07-30T04:53:14;6.13;;;2.97;;
17228;SDS011;8731;50.364;8.958;2023-07-30T04:57:39;4.03;;;2.70;;
17228;SDS011;8731;50.364;8.958;2023-07-30T05:02:01;3.37;;;2.43;;
17228;SDS011;8731;50.364;8.958;2023-07-30T05:06:24;3.23;;;2.33;;
17228;SDS011;8731;50.364;8.958;2023-07-30T05:10:48;3.03;;;2.07;;
17228;SDS011;8731;50.364;8.958;2023-07-30T05:15:10;4.10;;;2.17;;
17228;SDS011;8731;50.364;8.958;2023-07-30T05:19:33;6.63;;;2.07;;
17228;SDS011;8731;50.364;8.958;2023-07-30T05:23:55;4.03;;;1.97;;
17228;SDS011;8731;50.364;8.958;2023-07-30T05:28:19;4.00;;;2.10;;
17228;SDS011;8731;50.364;8.958;2023-07-30T05:32:42;4.97;;;2.50;;
17228;SDS011;8731;50.364;8.958;2023-07-30T05:37:04;3.60;;;2.10;;
17228;SDS011;8731;50.364;8.958;2023-07-30T05:41:27;4.60;;;1.90;;
17228;SDS011;8731;50.364;8.958;2023-07-30T05:45:51;2.83;;;2.00;;
17228;SDS011;8731;50.364;8.958;2023-07-30T05:50:13;3.10;;;2.10;;
17228;SDS011;8731;50.364;8.958;2023-07-30T05:54:36;4.60;;;2.07;;
17228;SDS011;8731;50.364;8.958;2023-07-30T05:58:58;3.10;;;1.40;;
17228;SDS011;8731;50.364;8.958;2023-07-30T06:03:22;2.80;;;1.73;;
17228;SDS011;8731;50.364;8.958;2023-07-30T06:07:45;4.20;;;1.80;;
17228;SDS011;8731;50.364;8.958;2023-07-30T06:12:08;2.10;;;1.73;;
17228;SDS011;8731;50.364;8.958;2023-07-30T06:16:31;2.63;;;1.60;;
17228;SDS011;8731;50.364;8.958;2023-07-30T06:20:55;2.73;;;1.53;;
17228;SDS011;8731;50.364;8.958;2023-07-30T06:25:17;5.43;;;1.50;;
17228;SDS011;8731;50.364;8.958;2023-07-30T06:29:40;3.37;;;1.60;;
17228;SDS011;8731;50.364;8.958;2023-07-30T06:34:02;1.77;;;1.23;;
17228;SDS011;8731;50.364;8.958;2023-07-30T06:38:26;4.05;;;1.80;;
17228;SDS011;8731;50.364;8.958;2023-07-30T06:42:49;4.10;;;1.33;;
17228;SDS011;8731;50.364;8.958;2023-07-30T06:47:11;1.40;;;1.30;;
17228;SDS011;8731;50.364;8.958;2023-07-30T06:51:34;3.35;;;1.52;;
17228;SDS011;8731;50.364;8.958;2023-07-30T06:55:58;2.65;;;1.60;;
17228;SDS011;8731;50.364;8.958;2023-07-30T07:00:20;3.25;;;1.52;;
17228;SDS011;8731;50.364;8.958;2023-07-30T07:04:42;2.88;;;1.70;;
17228;SDS011;8731;50.364;8.958;2023-07-30T07:09:05;2.33;;;1.80;;
17228;SDS011;8731;50.364;8.958;2023-07-30T07:13:29;1.85;;;1.50;;
17228;SDS011;8731;50.364;8.958;2023-07-30T07:17:51;1.80;;;1.40;;
17228;SDS011;8731;50.364;8.958;2023-07-30T07:22:14;2.37;;;1.60;;
17228;SDS011;8731;50.364;8.958;2023-07-30T07:26:37;2.27;;;1.57;;
17228;SDS011;8731;50.364;8.958;2023-07-30T07:31:01;3.63;;;1.70;;
17228;SDS011;8731;50.364;8.958;2023-07-30T07:35:24;1.87;;;1.60;;
17228;SDS011;8731;50.364;8.958;2023-07-30T07:39:46;2.33;;;1.50;;
17228;SDS011;8731;50.364;8.958;2023-07-30T07:44:09;3.00;;;1.87;;
17228;SDS011;8731;50.364;8.958;2023-07-30T07:48:33;3.53;;;1.53;;
17228;SDS011;8731;50.364;8.958;2023-07-30T07:52:56;6.67;;;1.90;;
17228;SDS011;8731;50.364;8.958;2023-07-30T07:57:18;3.57;;;1.63;;
17228;SDS011;8731;50.364;8.958;2023-07-30T08:01:41;2.27;;;1.53;;
17228;SDS011;8731;50.364;8.958;2023-07-30T08:06:05;2.33;;;1.80;;
17228;SDS011;8731;50.364;8.958;2023-07-30T08:10:28;3.70;;;1.47;;
17228;SDS011;8731;50.364;8.958;2023-07-30T08:14:50;1.93;;;1.40;;
17228;SDS011;8731;50.364;8.958;2023-07-30T08:19:13;2.60;;;1.47;;
17228;SDS011;8731;50.364;8.958;2023-07-30T08:23:37;2.60;;;1.60;;
17228;SDS011;8731;50.364;8.958;2023-07-30T08:27:59;1.63;;;1.37;;
17228;SDS011;8731;50.364;8.958;2023-07-30T08:32:22;2.70;;;1.50;;
17228;SDS011;8731;50.364;8.958;2023-07-30T08:36:45;1.80;;;1.43;;
17228;SDS011;8731;50.364;8.958;2023-07-30T08:41:09;1.57;;;1.20;;
17228;SDS011;8731;50.364;8.958;2023-07-30T08:45:32;2.30;;;1.40;;
17228;SDS011;8731;50.364;8.958;2023-07-30T08:49:54;3.37;;;1.30;;
17228;SDS011;8731;50.364;8.958;2023-07-30T08:54:19;2.10;;;1.30;;
17228;SDS011;8731;50.364;8.958;2023-07-30T08:58:46;1.30;;;1.10;;
17228;SDS011;8731;50.364;8.958;2023-07-30T09:03:11;1.53;;;1.00;;
17228;SDS011;8731;50.364;8.958;2023-07-30T09:07:38;1.53;;;0.90;;
17228;SDS011;8731;50.364;8.958;2023-07-30T09:12:02;2.13;;;1.23;;
17228;SDS011;8731;50.364;8.958;2023-07-30T09:16:26;1.80;;;1.20;;
17228;SDS011;8731;50.364;8.958;2023-07-30T09:20:49;1.40;;;0.93;;
17228;SDS011;8731;50.364;8.958;2023-07-30T09:25:12;1.53;;;1.20;;
17228;SDS011;8731;50.364;8.958;2023-07-30T09:29:36;1.67;;;1.00;;
17228;SDS011;8731;50.364;8.958;2023-07-30T09:34:00;1.73;;;1.30;;
17228;SDS011;8731;50.364;8.958;2023-07-30T09:38:22;1.30;;;1.20;;
17228;SDS011;8731;50.364;8.958;2023-07-30T09:42:46;2.57;;;1.30;;
17228;SDS011;8731;50.364;8.958;2023-07-30T09:47:11;2.10;;;1.43;;
17228;SDS011;8731;50.364;8.958;2023-07-30T09:51:35;1.80;;;1.20;;
17228;SDS011;8731;50.364;8.958;2023-07-30T09:55:59;4.10;;;1.60;;
17228;SDS011;8731;50.364;8.958;2023-07-30T10:00:23;1.30;;;1.20;;
17228;SDS011;8731;50.364;8.958;2023-07-30T10:04:47;2.30;;;1.27;;
17228;SDS011;8731;50.364;8.958;2023-07-30T10:09:16;1.40;;;1.30;;
17228;SDS011;8731;50.364;8.958;2023-07-30T10:13:43;2.53;;;1.63;;
17228;SDS011;8731;50.364;8.958;2023-07-30T10:18:06;5.10;;;1.80;;
17228;SDS011;8731;50.364;8.958;2023-07-30T10:22:28;2.67;;;1.20;;
17228;SDS011;8731;50.364;8.958;2023-07-30T10:26:54;2.97;;;1.47;;
17228;SDS011;8731;50.364;8.958;2023-07-30T10:31:19;3.93;;;1.20;;
17228;SDS011;8731;50.364;8.958;2023-07-30T10:35:59;3.77;;;1.30;;
17228;SDS011;8731;50.364;8.958;2023-07-30T10:40:21;2.40;;;0.90;;
17228;SDS011;8731;50.364;8.958;2023-07-30T10:44:45;3.33;;;1.20;;
17228;SDS011;8731;50.364;8.958;2023-07-30T10:49:07;1.60;;;0.90;;
17228;SDS011;8731;50.364;8.958;2023-07-30T10:53:32;2.30;;;1.13;;
17228;SDS011;8731;50.364;8.958;2023-07-30T10:57:56;0.93;;;0.70;;
17228;SDS011;8731;50.364;8.958;2023-07-30T11:02:23;2.73;;;1.07;;
17228;SDS011;8731;50.364;8.958;2023-07-30T11:06:46;2.73;;;0.93;;
17228;SDS011;8731;50.364;8.958;2023-07-30T11:11:10;1.10;;;0.70;;
17228;SDS011;8731;50.364;8.958;2023-07-30T11:15:32;2.70;;;0.80;;
17228;SDS011;8731;50.364;8.958;2023-07-30T11:20:03;1.00;;;0.70;;
17228;SDS011;8731;50.364;8.958;2023-07-30T11:24:33;2.10;;;0.80;;
17228;SDS011;8731;50.364;8.958;2023-07-30T11:28:58;2.20;;;1.17;;
17228;SDS011;8731;50.364;8.958;2023-07-30T11:33:21;1.80;;;1.03;;
17228;SDS011;8731;50.364;8.958;2023-07-30T11:37:45;1.20;;;0.97;;
17228;SDS011;8731;50.364;8.958;2023-07-30T11:42:08;3.33;;;1.10;;
17228;SDS011;8731;50.364;8.958;2023-07-30T11:46:31;3.63;;;1.20;;
17228;SDS011;8731;50.364;8.958;2023-07-30T11:50:55;2.70;;;1.07;;
17228;SDS011;8731;50.364;8.958;2023-07-30T11:55:19;3.13;;;1.23;;
17228;SDS011;8731;50.364;8.958;2023-07-30T11:59:42;3.83;;;1.33;;
17228;SDS011;8731;50.364;8.958;2023-07-30T12:04:05;3.87;;;1.30;;
17228;SDS011;8731;50.364;8.958;2023-07-30T12:08:28;3.70;;;1.43;;
17228;SDS011;8731;50.364;8.958;2023-07-30T12:12:52;2.23;;;1.40;;
17228;SDS011;8731;50.364;8.958;2023-07-30T12:17:14;3.50;;;1.30;;
17228;SDS011;8731;50.364;8.958;2023-07-30T12:21:37;2.83;;;1.23;;
17228;SDS011;8731;50.364;8.958;2023-07-30T12:26:00;4.13;;;1.67;;
17228;SDS011;8731;50.364;8.958;2023-07-30T12:30:26;3.93;;;1.67;;
17228;SDS011;8731;50.364;8.958;2023-07-30T12:34:48;5.63;;;1.80;;
17228;SDS011;8731;50.364;8.958;2023-07-30T12:39:11;3.43;;;1.40;;
17228;SDS011;8731;50.364;8.958;2023-07-30T12:43:34;5.63;;;1.83;;
17228;SDS011;8731;50.364;8.958;2023-07-30T12:47:58;3.20;;;1.27;;
17228;SDS011;8731;50.364;8.958;2023-07-30T12:52:21;4.47;;;1.40;;
17228;SDS011;8731;50.364;8.958;2023-07-30T12:56:44;4.30;;;1.37;;
17228;SDS011;8731;50.364;8.958;2023-07-30T13:01:07;4.80;;;1.47;;
17228;SDS011;8731;50.364;8.958;2023-07-30T13:05:31;5.17;;;1.50;;
17228;SDS011;8731;50.364;8.958;2023-07-30T13:10:01;5.13;;;1.67;;
17228;SDS011;8731;50.364;8.958;2023-07-30T13:14:26;5.47;;;1.87;;
17228;SDS011;8731;50.364;8.958;2023-07-30T13:18:49;4.43;;;1.40;;
17228;SDS011;8731;50.364;8.958;2023-07-30T13:23:14;6.70;;;1.53;;
17228;SDS011;8731;50.364;8.958;2023-07-30T13:27:36;4.83;;;1.70;;
17228;SDS011;8731;50.364;8.958;2023-07-30T13:31:59;4.03;;;1.33;;
17228;SDS011;8731;50.364;8.958;2023-07-30T13:36:21;5.17;;;1.40;;
17228;SDS011;8731;50.364;8.958;2023-07-30T13:40:45;6.60;;;1.90;;
17228;SDS011;8731;50.364;8.958;2023-07-30T13:45:08;4.37;;;1.40;;
17228;SDS011;8731;50.364;8.958;2023-07-30T13:49:31;5.00;;;1.70;;
17228;SDS011;8731;50.364;8.958;2023-07-30T13:53:54;2.63;;;1.47;;
17228;SDS011;8731;50.364;8.958;2023-07-30T13:58:18;5.93;;;1.63;;
17228;SDS011;8731;50.364;8.958;2023-07-30T14:02:41;3.93;;;1.37;;
17228;SDS011;8731;50.364;8.958;2023-07-30T14:07:03;6.10;;;1.80;;
17228;SDS011;8731;50.364;8.958;2023-07-30T14:11:26;4.33;;;1.50;;
17228;SDS011;8731;50.364;8.958;2023-07-30T14:15:50;4.60;;;1.47;;
17228;SDS011;8731;50.364;8.958;2023-07-30T14:20:13;4.37;;;1.70;;
17228;SDS011;8731;50.364;8.958;2023-07-30T14:24:35;5.30;;;2.00;;
17228;SDS011;8731;50.364;8.958;2023-07-30T14:28:58;5.13;;;1.40;;
17228;SDS011;8731;50.364;8.958;2023-07-30T14:33:22;3.47;;;1.30;;
17228;SDS011;8731;50.364;8.958;2023-07-30T14:37:45;4.30;;;1.37;;
17228;SDS011;8731;50.364;8.958;2023-07-30T14:42:09;3.70;;;1.30;;
17228;SDS011;8731;50.364;8.958;2023-07-30T14:46:31;3.87;;;1.33;;
17228;SDS011;8731;50.364;8.958;2023-07-30T14:50:55;4.63;;;1.60;;
17228;SDS011;8731;50.364;8.958;2023-07-30T14:55:17;4.03;;;1.50;;
17228;SDS011;8731;50.364;8.958;2023-07-30T14:59:40;6.10;;;1.33;;
17228;SDS011;8731;50.364;8.958;2023-07-30T15:04:03;4.27;;;1.53;;
17228;SDS011;8731;50.364;8.958;2023-07-30T15:08:27;4.07;;;1.60;;
17228;SDS011;8731;50.364;8.958;2023-07-30T15:12:52;6.43;;;1.70;;
17228;SDS011;8731;50.364;8.958;2023-07-30T15:17:14;2.70;;;1.30;;
17228;SDS011;8731;50.364;8.958;2023-07-30T15:21:37;3.07;;;1.40;;
17228;SDS011;8731;50.364;8.958;2023-07-30T15:26:01;3.37;;;1.20;;
17228;SDS011;8731;50.364;8.958;2023-07-30T15:30:24;4.53;;;1.10;;
17228;SDS011;8731;50.364;8.958;2023-07-30T15:34:46;4.00;;;1.50;;
17228;SDS011;8731;50.364;8.958;2023-07-30T15:39:09;4.07;;;1.80;;
17228;SDS011;8731;50.364;8.958;2023-07-30T15:43:33;3.97;;;1.73;;
17228;SDS011;8731;50.364;8.958;2023-07-30T15:47:55;3.77;;;1.40;;
17228;SDS011;8731;50.364;8.958;2023-07-30T15:52:18;2.13;;;1.00;;
17228;SDS011;8731;50.364;8.958;2023-07-30T15:56:41;2.43;;;1.27;;
17228;SDS011;8731;50.364;8.958;2023-07-30T16:01:06;2.73;;;1.27;;
17228;SDS011;8731;50.364;8.958;2023-07-30T16:05:29;4.70;;;1.70;;
17228;SDS011;8731;50.364;8.958;2023-07-30T16:09:52;3.60;;;1.43;;
17228;SDS011;8731;50.364;8.958;2023-07-30T16:14:15;3.30;;;1.50;;
17228;SDS011;8731;50.364;8.958;2023-07-30T16:18:39;4.67;;;1.57;;
17228;SDS011;8731;50.364;8.958;2023-07-30T16:23:02;4.80;;;1.60;;
17228;SDS011;8731;50.364;8.958;2023-07-30T16:27:26;3.83;;;1.33;;
17228;SDS011;8731;50.364;8.958;2023-07-30T16:31:49;4.43;;;1.33;;
17228;SDS011;8731;50.364;8.958;2023-07-30T16:36:13;4.10;;;1.20;;
17228;SDS011;8731;50.364;8.958;2023-07-30T16:40:35;4.53;;;1.47;;
17228;SDS011;8731;50.364;8.958;2023-07-30T16:44:58;2.83;;;1.17;;
17228;SDS011;8731;50.364;8.958;2023-07-30T16:49:20;4.17;;;1.37;;
17228;SDS011;8731;50.364;8.958;2023-07-30T16:53:44;3.63;;;1.50;;
17228;SDS011;8731;50.364;8.958;2023-07-30T16:58:07;3.93;;;1.33;;
17228;SDS011;8731;50.364;8.958;2023-07-30T17:02:29;4.53;;;1.37;;
17228;SDS011;8731;50.364;8.958;2023-07-30T17:06:51;2.43;;;1.40;;
17228;SDS011;8731;50.364;8.958;2023-07-30T17:11:15;3.83;;;1.60;;
17228;SDS011;8731;50.364;8.958;2023-07-30T17:15:38;2.77;;;1.37;;
17228;SDS011;8731;50.364;8.958;2023-07-30T17:20:00;3.97;;;1.43;;
17228;SDS011;8731;50.364;8.958;2023-07-30T17:24:23;4.77;;;1.33;;
17228;SDS011;8731;50.364;8.958;2023-07-30T17:28:47;5.27;;;1.90;;
17228;SDS011;8731;50.364;8.958;2023-07-30T17:33:20;3.43;;;1.30;;
17228;SDS011;8731;50.364;8.958;2023-07-30T17:37:43;4.17;;;1.20;;
17228;SDS011;8731;50.364;8.958;2023-07-30T17:42:12;4.43;;;1.40;;
17228;SDS011;8731;50.364;8.958;2023-07-30T17:46:56;4.63;;;1.73;;
17228;SDS011;8731;50.364;8.958;2023-07-30T17:51:20;3.43;;;1.57;;
17228;SDS011;8731;50.364;8.958;2023-07-30T17:55:42;3.57;;;1.50;;
17228;SDS011;8731;50.364;8.958;2023-07-30T18:00:05;3.87;;;1.63;;
17228;SDS011;8731;50.364;8.958;2023-07-30T18:04:37;4.80;;;1.70;;
17228;SDS011;8731;50.364;8.958;2023-07-30T18:09:00;7.03;;;1.47;;
17228;SDS011;8731;50.364;8.958;2023-07-30T18:13:23;2.20;;;1.00;;
17228;SDS011;8731;50.364;8.958;2023-07-30T18:17:47;3.33;;;1.40;;
17228;SDS011;8731;50.364;8.958;2023-07-30T18:22:14;4.03;;;1.40;;
17228;SDS011;8731;50.364;8.958;2023-07-30T18:26:36;4.47;;;1.77;;
17228;SDS011;8731;50.364;8.958;2023-07-30T18:30:59;5.87;;;1.40;;
17228;SDS011;8731;50.364;8.958;2023-07-30T18:35:23;3.60;;;1.27;;
17228;SDS011;8731;50.364;8.958;2023-07-30T18:39:48;4.93;;;1.60;;
17228;SDS011;8731;50.364;8.958;2023-07-30T18:44:14;5.60;;;1.67;;
17228;SDS011;8731;50.364;8.958;2023-07-30T18:48:37;2.90;;;1.40;;
17228;SDS011;8731;50.364;8.958;2023-07-30T18:53:00;4.60;;;1.37;;
17228;SDS011;8731;50.364;8.958;2023-07-30T18:57:24;3.83;;;1.70;;
17228;SDS011;8731;50.364;8.958;2023-07-30T19:01:47;3.47;;;1.73;;
17228;SDS011;8731;50.364;8.958;2023-07-30T19:06:09;2.77;;;1.53;;
17228;SDS011;8731;50.364;8.958;2023-07-30T19:10:31;4.57;;;1.63;;
17228;SDS011;8731;50.364;8.958;2023-07-30T19:14:55;5.57;;;1.50;;
17228;SDS011;8731;50.364;8.958;2023-07-30T19:19:18;6.07;;;1.77;;
17228;SDS011;8731;50.364;8.958;2023-07-30T19:23:42;2.93;;;1.50;;
17228;SDS011;8731;50.364;8.958;2023-07-30T19:28:06;4.03;;;1.40;;
17228;SDS011;8731;50.364;8.958;2023-07-30T19:32:30;5.50;;;1.70;;
17228;SDS011;8731;50.364;8.958;2023-07-30T19:36:52;6.43;;;1.67;;
17228;SDS011;8731;50.364;8.958;2023-07-30T19:41:15;2.33;;;1.20;;
17228;SDS011;8731;50.364;8.958;2023-07-30T19:45:37;4.27;;;1.53;;
17228;SDS011;8731;50.364;8.958;2023-07-30T19:50:01;5.03;;;1.70;;
17228;SDS011;8731;50.364;8.958;2023-07-30T19:54:24;3.07;;;1.33;;
17228;SDS011;8731;50.364;8.958;2023-07-30T19:58:46;4.63;;;1.63;;
17228;SDS011;8731;50.364;8.958;2023-07-30T20:03:09;4.63;;;1.63;;
17228;SDS011;8731;50.364;8.958;2023-07-30T20:07:33;4.10;;;1.60;;
17228;SDS011;8731;50.364;8.958;2023-07-30T20:11:56;3.97;;;1.50;;
17228;SDS011;8731;50.364;8.958;2023-07-30T20:16:18;5.37;;;1.70;;
17228;SDS011;8731;50.364;8.958;2023-07-30T20:20:41;4.57;;;1.80;;
17228;SDS011;8731;50.364;8.958;2023-07-30T20:25:06;11.33;;;7.30;;
17228;SDS011;8731;50.364;8.958;2023-07-30T20:29:30;6.57;;;3.73;;
17228;SDS011;8731;50.364;8.958;2023-07-30T20:33:52;6.73;;;2.30;;
17228;SDS011;8731;50.364;8.958;2023-07-30T20:38:15;5.80;;;1.63;;
17228;SDS011;8731;50.364;8.958;2023-07-30T20:42:39;5.67;;;2.03;;
17228;SDS011;8731;50.364;8.958;2023-07-30T20:47:01;4.93;;;1.77;;
17228;SDS011;8731;50.364;8.958;2023-07-30T20:51:25;3.70;;;2.00;;
17228;SDS011;8731;50.364;8.958;2023-07-30T20:55:48;2.50;;;2.10;;
17228;SDS011;8731;50.364;8.958;2023-07-30T21:00:12;10.13;;;3.20;;
17228;SDS011;8731;50.364;8.958;2023-07-30T21:04:35;3.90;;;2.80;;
17228;SDS011;8731;50.364;8.958;2023-07-30T21:08:58;7.53;;;3.23;;
17228;SDS011;8731;50.364;8.958;2023-07-30T21:13:20;6.67;;;2.10;;
17228;SDS011;8731;50.364;8.958;2023-07-30T21:17:44;4.90;;;2.57;;
17228;SDS011;8731;50.364;8.958;2023-07-30T21:22:08;6.87;;;2.33;;
17228;SDS011;8731;50.364;8.958;2023-07-30T21:26:30;8.17;;;2.97;;
17228;SDS011;8731;50.364;8.958;2023-07-30T21:30:59;6.53;;;4.07;;
17228;SDS011;8731;50.364;8.958;2023-07-30T21:35:24;6.83;;;3.60;;
17228;SDS011;8731;50.364;8.958;2023-07-30T21:39:47;5.73;;;2.43;;
17228;SDS011;8731;50.364;8.958;2023-07-30T21:44:10;5.57;;;2.87;;
17228;SDS011;8731;50.364;8.958;2023-07-30T21:48:33;4.57;;;2.90;;
17228;SDS011;8731;50.364;8.958;2023-07-30T21:52:57;5.23;;;2.00;;
17228;SDS011;8731;50.364;8.958;2023-07-30T21:57:19;5.87;;;2.50;;
17228;SDS011;8731;50.364;8.958;2023-07-30T22:01:42;6.77;;;3.20;;
17228;SDS011;8731;50.364;8.958;2023-07-30T22:06:05;6.13;;;3.60;;
17228;SDS011;8731;50.364;8.958;2023-07-30T22:10:28;6.13;;;2.20;;
17228;SDS011;8731;50.364;8.958;2023-07-30T22:14:51;4.23;;;2.13;;
17228;SDS011;8731;50.364;8.958;2023-07-30T22:19:13;3.70;;;1.67;;
17228;SDS011;8731;50.364;8.958;2023-07-30T22:23:36;6.17;;;1.53;;
17228;SDS011;8731;50.364;8.958;2023-07-30T22:28:00;3.93;;;1.63;;
17228;SDS011;8731;50.364;8.958;2023-07-30T22:32:22;5.63;;;2.13;;
17228;SDS011;8731;50.364;8.958;2023-07-30T22:36:45;5.43;;;2.00;;
17228;SDS011;8731;50.364;8.958;2023-07-30T22:41:08;3.83;;;1.50;;
17228;SDS011;8731;50.364;8.958;2023-07-30T22:45:32;5.03;;;1.90;;
17228;SDS011;8731;50.364;8.958;2023-07-30T22:49:54;3.00;;;1.30;;
17228;SDS011;8731;50.364;8.958;2023-07-30T22:54:17;4.77;;;1.50;;
17228;SDS011;8731;50.364;8.958;2023-07-30T22:58:39;2.77;;;1.60;;
17228;SDS011;8731;50.364;8.958;2023-07-30T23:03:03;4.43;;;1.53;;
17228;SDS011;8731;50.364;8.958;2023-07-30T23:07:26;4.60;;;1.70;;
17228;SDS011;8731;50.364;8.958;2023-07-30T23:11:48;5.70;;;1.83;;
17228;SDS011;8731;50.364;8.958;2023-07-30T23:16:11;5.23;;;1.70;;
17228;SDS011;8731;50.364;8.958;2023-07-30T23:20:35;3.10;;;1.53;;
17228;SDS011;8731;50.364;8.958;2023-07-30T23:24:57;5.77;;;2.33;;
17228;SDS011;8731;50.364;8.958;2023-07-30T23:29:20;4.10;;;1.60;;
17228;SDS011;8731;50.364;8.958;2023-07-30T23:33:42;4.67;;;1.63;;
17228;SDS011;8731;50.364;8.958;2023-07-30T23:38:06;5.23;;;1.70;;
17228;SDS011;8731;50.364;8.958;2023-07-30T23:42:28;4.27;;;1.73;;
17228;SDS011;8731;50.364;8.958;2023-07-30T23:46:51;3.27;;;1.53;;
17228;SDS011;8731;50.364;8.958;2023-07-30T23:51:13;3.77;;;1.70;;
17228;SDS011;8731;50.364;8.958;2023-07-30T23:55:37;3.93;;;1.67;;
